createdAt,value
2018-12-23T00:00:27.965Z,13.43
2018-12-23T00:06:03.205Z,16.63
2018-12-23T00:08:35.305Z,14.07
2018-12-23T00:11:30.679Z,16.20
2018-12-23T00:14:11.874Z,15.27
2018-12-23T00:17:01.160Z,15.57
2018-12-23T00:19:54.611Z,12.40
2018-12-23T00:25:32.237Z,16.77
2018-12-23T00:28:12.974Z,24.10
2018-12-23T00:30:43.586Z,22.10
2018-12-23T00:33:30.558Z,14.53
2018-12-23T00:36:01.385Z,15.73
2018-12-23T00:38:36.065Z,12.37
2018-12-23T00:41:20.550Z,16.83
2018-12-23T00:47:01.664Z,9.03
2018-12-23T00:49:38.999Z,12.50
2018-12-23T00:52:09.545Z,13.53
2018-12-23T00:54:43.042Z,13.53
2018-12-23T00:57:19.197Z,13.47
2018-12-23T00:59:50.667Z,12.93
2018-12-23T01:02:24.603Z,16.23
2018-12-23T01:04:57.763Z,15.27
2018-12-23T01:07:33.120Z,13.23
2018-12-23T01:13:07.660Z,21.33
2018-12-23T01:15:37.877Z,13.53
2018-12-23T01:18:08.762Z,13.13
2018-12-23T01:20:38.970Z,12.63
2018-12-23T01:23:21.591Z,18.43
2018-12-23T01:26:03.638Z,15.00
2018-12-23T01:31:49.856Z,8.77
2018-12-23T01:34:26.170Z,12.73
2018-12-23T01:36:56.882Z,11.03
2018-12-23T01:39:48.317Z,8.57
2018-12-23T01:42:24.955Z,6.17
2018-12-23T01:45:01.816Z,5.97
2018-12-23T01:47:41.040Z,7.17
2018-12-23T01:50:16.805Z,9.93
2018-12-23T01:52:55.222Z,6.03
2018-12-23T01:55:47.576Z,8.50
2018-12-23T01:58:27.421Z,15.97
2018-12-23T02:01:03.441Z,9.97
2018-12-23T02:03:55.525Z,9.27
2018-12-23T02:06:39.267Z,13.17
2018-12-23T02:09:13.652Z,8.97
2018-12-23T02:11:58.876Z,9.00
2018-12-23T02:14:46.774Z,13.80
2018-12-23T02:17:30.343Z,11.47
2018-12-23T02:20:15.535Z,13.30
2018-12-23T02:23:11.544Z,14.60
2018-12-23T02:25:54.340Z,12.70
2018-12-23T02:28:45.238Z,10.63
2018-12-23T02:34:20.751Z,11.00
2018-12-23T02:36:59.534Z,10.53
2018-12-23T02:39:41.435Z,11.47
2018-12-23T02:42:21.492Z,15.87
2018-12-23T02:45:03.413Z,10.83
2018-12-23T02:47:33.345Z,11.63
2018-12-23T02:50:04.294Z,10.10
2018-12-23T02:52:34.013Z,11.40
2018-12-23T02:55:09.760Z,14.27
2018-12-23T02:57:47.754Z,13.53
2018-12-23T03:00:38.849Z,10.43
2018-12-23T03:03:21.190Z,10.93
2018-12-23T03:06:06.427Z,12.27
2018-12-23T03:08:51.492Z,10.43
2018-12-23T03:11:37.588Z,11.60
2018-12-23T04:18:02.421Z,7.97
2018-12-23T04:26:49.063Z,9.77
2018-12-23T04:29:26.938Z,7.70
2018-12-23T04:38:20.021Z,7.07
2018-12-23T05:02:26.785Z,14.60
2018-12-23T05:05:08.778Z,13.93
2018-12-23T05:07:51.332Z,12.37
2018-12-23T05:10:32.794Z,12.27
2018-12-23T05:13:20.103Z,10.03
2018-12-23T05:16:03.399Z,12.47
2018-12-23T05:18:46.353Z,10.07
2018-12-23T05:21:24.542Z,10.20
2018-12-23T05:24:12.728Z,9.33
2018-12-23T05:26:50.935Z,10.67
2018-12-23T05:32:35.305Z,9.63
2018-12-23T05:35:18.356Z,11.20
2018-12-23T05:37:56.035Z,11.10
2018-12-23T05:40:35.663Z,11.47
2018-12-23T05:43:10.809Z,9.23
2018-12-23T05:45:47.003Z,12.60
2018-12-23T05:48:42.036Z,10.97
2018-12-23T05:51:21.028Z,12.37
2018-12-23T06:21:21.012Z,17.70
2018-12-23T06:27:26.405Z,13.50
2018-12-23T06:33:05.499Z,14.90
2018-12-23T06:38:44.889Z,14.10
2018-12-23T06:41:24.687Z,15.53
2018-12-23T06:44:05.320Z,15.10
2018-12-23T06:46:51.352Z,17.43
2018-12-23T06:52:26.755Z,18.23
2018-12-23T06:55:10.703Z,16.80
2018-12-23T06:57:45.971Z,20.90
2018-12-23T07:04:29.131Z,16.57
2018-12-23T07:31:20.519Z,16.17
2018-12-23T07:36:49.763Z,20.03
2018-12-23T07:39:33.130Z,20.17
2018-12-23T07:42:15.395Z,23.03
2018-12-23T08:08:33.825Z,25.83
2018-12-23T08:23:38.160Z,28.27
2018-12-23T08:59:51.793Z,22.50
2018-12-23T09:10:32.189Z,24.23
2018-12-23T09:22:10.244Z,25.63
2018-12-23T09:25:05.855Z,28.87
2018-12-23T09:27:41.071Z,23.87
2018-12-23T09:33:07.028Z,29.37
2018-12-23T09:35:50.761Z,29.73
2018-12-23T09:38:37.124Z,31.57
2018-12-23T09:41:22.092Z,28.60
2018-12-23T09:44:11.654Z,32.87
2018-12-23T09:46:53.231Z,31.83
2018-12-23T09:49:35.300Z,31.77
2018-12-23T09:55:36.735Z,31.00
2018-12-23T09:58:07.195Z,31.77
2018-12-23T10:01:11.153Z,31.40
2018-12-23T10:09:14.881Z,30.97
2018-12-23T10:15:16.005Z,33.47
2018-12-23T10:17:28.808Z,32.17
2018-12-23T10:20:10.680Z,33.27
2018-12-23T10:22:51.854Z,29.70
2018-12-23T10:25:33.602Z,28.57
2018-12-23T10:28:15.347Z,30.97
2018-12-23T10:30:57.412Z,28.63
2018-12-23T10:33:39.453Z,31.90
2018-12-23T10:36:23.775Z,30.57
2018-12-23T10:39:05.030Z,30.23
2018-12-23T10:41:48.477Z,25.93
2018-12-23T10:44:30.160Z,30.30
2018-12-23T10:47:11.870Z,29.03
2018-12-23T10:49:53.963Z,31.10
2018-12-23T10:52:36.040Z,29.83
2018-12-23T10:55:18.077Z,24.67
2018-12-23T10:58:00.171Z,25.00
2018-12-23T11:00:42.570Z,29.83
2018-12-23T11:03:25.414Z,25.10
2018-12-23T11:06:06.818Z,25.57
2018-12-23T11:08:48.662Z,27.17
2018-12-23T11:11:30.697Z,32.00
2018-12-23T11:14:12.840Z,29.03
2018-12-23T11:16:54.486Z,29.10
2018-12-23T11:19:36.637Z,25.93
2018-12-23T11:22:17.908Z,28.37
2018-12-23T11:24:59.879Z,30.80
2018-12-23T11:27:41.741Z,35.00
2018-12-23T11:30:12.062Z,25.23
2018-12-23T11:36:02.981Z,31.13
2018-12-23T11:38:46.602Z,36.40
2018-12-23T11:41:27.647Z,35.10
2018-12-23T11:44:09.159Z,33.57
2018-12-23T11:46:51.373Z,31.40
2018-12-23T11:49:32.472Z,34.80
2018-12-23T11:52:14.480Z,33.53
2018-12-23T11:54:56.359Z,24.17
2018-12-23T11:57:38.201Z,31.23
2018-12-23T12:00:19.467Z,28.77
2018-12-23T12:03:00.782Z,27.40
2018-12-23T12:05:42.691Z,23.27
2018-12-23T12:08:24.694Z,27.67
2018-12-23T12:11:06.002Z,32.17
2018-12-23T12:13:47.199Z,33.73
2018-12-23T12:16:50.026Z,30.47
2018-12-23T12:19:39.234Z,27.87
2018-12-23T12:22:22.982Z,24.53
2018-12-23T12:25:05.017Z,28.30
2018-12-23T12:27:47.586Z,27.73
2018-12-23T12:30:49.180Z,27.17
2018-12-23T12:33:19.575Z,34.30
2018-12-23T12:36:03.041Z,37.73
2018-12-23T12:38:51.933Z,33.73
2018-12-23T12:41:20.626Z,28.77
2018-12-23T12:44:29.146Z,22.93
2018-12-23T12:47:10.530Z,23.90
2018-12-23T12:50:03.159Z,21.47
2018-12-23T12:55:40.790Z,23.47
2018-12-23T12:58:22.945Z,24.80
2018-12-23T13:01:04.883Z,28.27
2018-12-23T13:03:47.083Z,27.17
2018-12-23T13:06:17.807Z,29.67
2018-12-23T13:09:07.413Z,33.87
2018-12-23T13:11:49.595Z,30.23
2018-12-23T13:14:19.852Z,27.10
2018-12-23T13:17:09.055Z,32.07
2018-12-23T13:19:58.232Z,22.43
2018-12-23T13:22:39.835Z,23.57
2018-12-23T13:25:22.188Z,28.20
2018-12-23T13:28:03.863Z,24.97
2018-12-23T13:30:45.274Z,26.60
2018-12-23T13:33:27.093Z,23.77
2018-12-23T13:36:08.901Z,26.80
2018-12-23T13:38:50.745Z,25.20
2018-12-23T13:41:47.701Z,24.47
2018-12-23T13:44:29.890Z,25.40
2018-12-23T13:47:11.030Z,21.60
2018-12-23T13:49:53.343Z,20.73
2018-12-23T13:53:01.422Z,19.87
2018-12-23T13:55:43.461Z,18.23
2018-12-23T13:58:25.036Z,16.63
2018-12-23T14:01:09.156Z,18.97
2018-12-23T14:03:50.739Z,15.97
2018-12-23T14:06:34.176Z,16.83
2018-12-23T14:09:17.389Z,16.43
2018-12-23T14:11:59.711Z,18.37
2018-12-23T14:14:42.234Z,18.43
2018-12-23T14:17:27.243Z,17.00
2018-12-23T14:20:08.799Z,19.77
2018-12-23T14:22:50.615Z,15.37
2018-12-23T14:25:32.531Z,17.47
2018-12-23T14:28:13.725Z,15.07
2018-12-23T14:33:34.429Z,15.37
2018-12-23T14:36:24.048Z,17.57
2018-12-23T14:39:05.648Z,15.50
2018-12-23T14:41:48.592Z,18.50
2018-12-23T14:44:30.420Z,12.47
2018-12-23T14:47:12.314Z,15.97
2018-12-23T14:49:54.407Z,12.63
2018-12-23T14:52:38.866Z,15.10
2018-12-23T14:55:45.787Z,14.10
2018-12-23T14:58:16.936Z,15.17
2018-12-23T15:00:58.906Z,11.80
2018-12-23T15:03:29.466Z,13.30
2018-12-23T15:06:18.731Z,14.17
2018-12-23T15:09:08.129Z,12.20
2018-12-23T15:11:50.262Z,11.27
2018-12-23T15:14:33.855Z,14.20
2018-12-23T15:17:15.244Z,13.20
2018-12-23T15:19:45.945Z,15.57
2018-12-23T15:22:37.910Z,13.60
2018-12-23T15:25:46.133Z,13.23
2018-12-23T15:28:27.903Z,13.87
2018-12-23T15:31:12.084Z,16.30
2018-12-23T15:33:53.525Z,11.33
2018-12-23T15:36:35.344Z,14.37
2018-12-23T15:39:17.081Z,11.70
2018-12-23T15:41:59.204Z,15.00
2018-12-23T15:44:29.817Z,17.77
2018-12-23T15:47:38.253Z,16.60
2018-12-23T15:50:22.507Z,16.37
2018-12-23T15:53:04.581Z,18.03
2018-12-23T15:55:46.525Z,17.67
2018-12-23T15:58:28.673Z,16.87
2018-12-23T16:01:10.464Z,13.13
2018-12-23T16:03:52.271Z,13.87
2018-12-23T16:06:35.811Z,15.67
2018-12-23T16:09:19.904Z,12.73
2018-12-23T16:12:03.078Z,12.80
2018-12-23T16:14:33.473Z,10.70
2018-12-23T16:17:22.723Z,13.30
2018-12-23T16:20:12.766Z,10.47
2018-12-23T16:22:55.035Z,10.13
2018-12-23T16:25:36.936Z,10.83
2018-12-23T16:28:21.335Z,8.37
2018-12-23T16:33:58.323Z,9.70
2018-12-23T16:36:35.459Z,12.03
2018-12-23T16:39:21.700Z,8.63
2018-12-23T16:42:03.244Z,12.03
2018-12-23T16:44:33.705Z,9.03
2018-12-23T16:47:22.840Z,11.97
2018-12-23T16:50:04.035Z,10.27
2018-12-23T16:52:38.596Z,12.37
2018-12-23T16:55:27.689Z,14.17
2018-12-23T16:58:16.953Z,11.07
2018-12-23T17:00:58.716Z,12.07
2018-12-23T17:03:40.545Z,10.33
2018-12-23T17:06:22.258Z,11.33
2018-12-23T17:09:04.683Z,11.33
2018-12-23T17:11:35.051Z,11.97
2018-12-23T17:14:24.259Z,11.57
2018-12-23T17:17:06.415Z,13.47
2018-12-23T17:19:36.706Z,11.37
2018-12-23T17:22:25.908Z,13.70
2018-12-23T17:25:15.010Z,13.30
2018-12-23T17:27:56.464Z,15.70
2018-12-23T17:30:37.593Z,11.67
2018-12-23T17:33:19.591Z,12.03
2018-12-23T17:36:01.625Z,14.37
2018-12-23T17:38:45.458Z,10.63
2018-12-23T17:41:29.157Z,12.40
2018-12-23T17:44:11.926Z,15.57
2018-12-23T17:46:53.647Z,10.67
2018-12-23T17:49:35.541Z,13.77
2018-12-23T17:52:23.203Z,12.70
2018-12-23T17:55:01.215Z,9.93
2018-12-23T17:57:43.310Z,9.67
2018-12-23T18:00:24.795Z,11.40
2018-12-23T18:03:06.188Z,9.80
2018-12-23T18:05:48.290Z,11.10
2018-12-23T18:08:30.267Z,9.07
2018-12-23T18:11:11.241Z,10.60
2018-12-23T18:13:41.882Z,11.07
2018-12-23T18:16:31.081Z,8.70
2018-12-23T18:19:20.317Z,6.53
2018-12-23T18:22:09.600Z,7.73
2018-12-23T18:24:40.307Z,9.23
2018-12-23T18:27:29.619Z,6.77
2018-12-23T18:30:18.892Z,9.07
2018-12-23T18:33:00.942Z,8.20
2018-12-23T18:35:42.467Z,9.70
2018-12-23T18:38:23.634Z,8.77
2018-12-23T18:41:06.065Z,9.03
2018-12-23T18:43:48.424Z,11.50
2018-12-23T18:46:29.746Z,11.63
2018-12-23T18:49:10.999Z,15.53
2018-12-23T18:51:41.548Z,11.77
2018-12-23T18:54:32.611Z,15.57
2018-12-23T18:57:22.236Z,15.13
2018-12-23T19:00:04.125Z,21.13
2018-12-23T19:02:46.146Z,22.30
2018-12-23T19:05:27.196Z,11.70
2018-12-23T19:08:08.672Z,11.50
2018-12-23T19:10:51.018Z,13.00
2018-12-23T19:13:32.300Z,9.00
2018-12-23T19:16:13.542Z,11.53
2018-12-23T19:19:21.557Z,7.37
2018-12-23T19:22:03.402Z,3.57
2018-12-23T19:24:44.923Z,5.50
2018-12-23T19:27:26.107Z,2.70
2018-12-23T19:30:07.196Z,5.97
2018-12-23T19:32:48.560Z,6.50
2018-12-23T19:35:32.786Z,4.37
2018-12-23T19:38:15.514Z,3.50
2018-12-23T19:41:25.053Z,4.30
2018-12-23T19:44:07.048Z,9.83
2018-12-23T19:46:49.176Z,7.23
2018-12-23T19:49:31.060Z,3.37
2018-12-23T19:52:14.346Z,2.87
2018-12-23T19:54:58.995Z,4.00
2018-12-23T19:57:40.800Z,4.33
2018-12-23T20:00:22.516Z,2.70
2018-12-23T20:03:05.406Z,3.40
2018-12-23T20:05:47.488Z,5.40
2018-12-23T20:08:28.900Z,2.83
2018-12-23T20:11:13.327Z,5.70
2018-12-23T20:13:54.718Z,6.27
2018-12-23T20:16:37.579Z,4.63
2018-12-23T20:19:19.757Z,5.87
2018-12-23T20:22:29.454Z,4.93
2018-12-23T20:25:37.357Z,3.43
2018-12-23T20:28:19.181Z,2.73
2018-12-23T20:31:18.980Z,1.70
2018-12-23T20:37:39.827Z,4.87
2018-12-23T20:40:28.053Z,3.50
2018-12-23T20:43:09.791Z,2.43
2018-12-23T20:45:52.012Z,4.27
2018-12-23T20:48:33.731Z,3.67
2018-12-23T20:51:15.588Z,9.00
2018-12-23T20:53:57.460Z,5.27
2018-12-23T20:56:39.324Z,6.57
2018-12-23T21:02:33.558Z,9.70
2018-12-23T21:05:41.493Z,7.43
2018-12-23T21:08:22.930Z,7.57
2018-12-23T21:11:30.879Z,8.70
2018-12-23T21:14:11.929Z,9.13
2018-12-23T21:16:53.949Z,8.03
2018-12-23T21:19:35.899Z,12.40
2018-12-23T21:22:17.130Z,10.33
2018-12-23T21:24:59.027Z,13.40
2018-12-23T21:27:40.952Z,11.90
2018-12-23T21:30:23.038Z,10.77
2018-12-23T21:33:32.671Z,11.77
2018-12-23T21:36:16.492Z,23.90
2018-12-23T21:41:41.916Z,12.60
2018-12-23T21:44:23.007Z,14.27
2018-12-23T21:47:04.264Z,12.20
2018-12-23T21:49:45.366Z,9.57
2018-12-23T21:52:28.558Z,15.53
2018-12-23T21:55:36.288Z,10.37
2018-12-23T21:58:18.027Z,9.20
2018-12-23T22:00:59.337Z,11.60
2018-12-23T22:03:40.460Z,17.97
2018-12-23T22:06:21.550Z,16.30
2018-12-23T22:09:02.667Z,17.70
2018-12-23T22:11:44.678Z,14.90
2018-12-23T22:14:25.809Z,18.03
2018-12-23T22:17:06.847Z,14.83
2018-12-23T22:19:48.864Z,17.07
2018-12-23T22:22:30.505Z,15.30
2018-12-23T22:25:00.852Z,17.70
2018-12-23T22:27:49.981Z,16.00
2018-12-23T22:30:31.969Z,14.30
2018-12-23T22:33:13.715Z,13.83
2018-12-23T22:35:55.595Z,16.50
2018-12-23T22:38:37.482Z,11.37
2018-12-23T22:41:19.427Z,11.50
2018-12-23T22:44:01.078Z,15.03
2018-12-23T22:46:42.562Z,12.70
2018-12-23T22:49:24.355Z,17.67
2018-12-23T22:52:06.378Z,14.67
2018-12-23T22:57:30.268Z,13.27
2018-12-23T23:00:00.913Z,12.00
2018-12-23T23:02:50.057Z,13.50
2018-12-23T23:05:39.256Z,9.87
2018-12-23T23:08:21.185Z,15.80
2018-12-23T23:11:02.414Z,17.27
2018-12-23T23:13:45.175Z,15.37
2018-12-23T23:16:26.589Z,10.27
2018-12-23T23:19:09.188Z,19.90
2018-12-23T23:21:50.797Z,6.53
2018-12-23T23:24:32.037Z,18.30
2018-12-23T23:27:02.499Z,16.93
2018-12-23T23:29:51.656Z,19.73
2018-12-23T23:32:40.814Z,21.67
2018-12-23T23:35:22.627Z,16.03
2018-12-23T23:38:04.390Z,19.77
2018-12-23T23:40:45.835Z,20.67
2018-12-23T23:43:27.576Z,13.93
2018-12-23T23:46:08.797Z,17.10
2018-12-23T23:48:49.836Z,18.87
2018-12-23T23:51:33.478Z,18.53
2018-12-23T23:54:04.103Z,19.13
2018-12-23T23:56:53.188Z,18.40
2018-12-23T23:59:42.249Z,12.23
